Time,TemperatureF,DewpointF,PressureIn,WindDirection,WindDirectionDegrees,WindSpeedMPH,WindSpeedGustMPH,Humidity,HourlyPrecipIn,Conditions,Clouds,dailyrainin,SoftwareType,DateUTC
2013-01-24 00:02:00,-5.9,-19.7,30.64,North,351,6.0,10.0,50,0.00,,CLR,0.00,VWS V14.01,2013-01-24 06:02:00,
2013-01-24 00:12:00,-5.9,-19.7,30.64,NNE,29,4.0,9.0,50,0.00,,CLR,0.00,VWS V14.01,2013-01-24 06:12:00,
2013-01-24 00:17:00,-6.1,-19.9,30.64,NNE,27,4.0,10.0,50,0.00,,CLR,0.00,VWS V14.01,2013-01-24 06:17:00,
2013-01-24 00:27:00,-6.1,-19.5,30.64,NNE,12,9.0,9.0,51,0.00,,CLR,0.00,VWS V14.01,2013-01-24 06:27:00,
2013-01-24 00:32:00,-6.1,-19.5,30.65,North,5,7.0,11.0,51,0.00,,CLR,0.00,VWS V14.01,2013-01-24 06:32:00,
2013-01-24 00:37:00,-6.3,-20.1,30.65,NE,51,4.0,7.0,50,0.00,,CLR,0.00,VWS V14.01,2013-01-24 06:37:00,
2013-01-24 00:42:00,-6.3,-20.1,30.65,ENE,63,4.0,7.0,50,0.00,,CLR,0.00,VWS V14.01,2013-01-24 06:42:00,
2013-01-24 00:52:00,-6.5,-19.9,30.65,NE,49,3.0,7.0,51,0.00,,CLR,0.00,VWS V14.01,2013-01-24 06:52:00,
2013-01-24 00:57:00,-6.5,-19.9,30.65,NE,44,2.0,4.0,51,0.00,,CLR,0.00,VWS V14.01,2013-01-24 06:57:00,
2013-01-24 01:02:00,-6.5,-19.5,30.65,NE,48,1.0,5.0,52,0.00,,CLR,0.00,VWS V14.01,2013-01-24 07:02:00,
2013-01-24 01:07:00,-6.5,-19.5,30.65,North,9,1.0,4.0,52,0.00,,CLR,0.00,VWS V14.01,2013-01-24 07:07:00,
2013-01-24 01:17:00,-6.8,-19.8,30.65,North,360,5.0,9.0,52,0.00,,CLR,0.00,VWS V14.01,2013-01-24 07:17:00,
2013-01-24 01:22:00,-6.8,-19.4,30.65,North,360,2.0,9.0,53,0.00,,CLR,0.00,VWS V14.01,2013-01-24 07:22:00,
2013-01-24 01:32:00,-6.8,-19.8,30.64,ENE,73,5.0,7.0,52,0.00,,CLR,0.00,VWS V14.01,2013-01-24 07:32:00,
2013-01-24 01:37:00,-7.0,-19.6,30.64,NE,46,4.0,8.0,53,0.00,,CLR,0.00,VWS V14.01,2013-01-24 07:37:00,
2013-01-24 01:42:00,-7.0,-19.6,30.64,NE,55,3.0,5.0,53,0.00,,CLR,0.00,VWS V14.01,2013-01-24 07:42:00,
2013-01-24 01:52:00,-7.0,-19.6,30.66,NE,46,2.0,7.0,53,0.00,,CLR,0.00,VWS V14.01,2013-01-24 07:52:00,
2013-01-24 02:02:00,-7.0,-19.6,30.66,NE,53,3.0,7.0,53,0.00,,CLR,0.00,VWS V14.01,2013-01-24 08:02:00,
2013-01-24 02:12:00,-7.0,-19.6,30.66,NNE,25,2.0,5.0,53,0.00,,CLR,0.00,VWS V14.01,2013-01-24 08:12:00,
2013-01-24 02:17:00,-7.0,-19.3,30.66,NNE,32,2.0,4.0,54,0.00,,CLR,0.00,VWS V14.01,2013-01-24 08:17:00,
2013-01-24 02:22:00,-7.2,-19.4,30.66,NNE,28,0.0,4.0,54,0.00,,CLR,0.00,VWS V14.01,2013-01-24 08:22:00,
2013-01-24 02:27:00,-7.0,-19.3,30.66,NNE,22,3.0,4.0,54,0.00,,CLR,0.00,VWS V14.01,2013-01-24 08:27:00,
2013-01-24 02:32:00,-7.0,-19.3,30.67,NNE,30,1.0,6.0,54,0.00,,CLR,0.00,VWS V14.01,2013-01-24 08:32:00,
2013-01-24 02:42:00,-7.2,-19.4,30.67,NE,36,1.0,6.0,54,0.00,,CLR,0.00,VWS V14.01,2013-01-24 08:42:00,
2013-01-24 02:52:00,-7.2,-19.4,30.68,NE,36,3.0,5.0,54,0.00,,CLR,0.00,VWS V14.01,2013-01-24 08:52:00,
2013-01-24 02:57:00,-7.2,-19.4,30.68,NNE,18,3.0,6.0,54,0.00,,CLR,0.00,VWS V14.01,2013-01-24 08:57:00,
2013-01-24 03:07:00,-7.2,-19.4,30.68,NNE,32,3.0,4.0,54,0.00,,CLR,0.00,VWS V14.01,2013-01-24 09:07:00,
2013-01-24 03:17:00,-7.2,-19.4,30.68,NNE,26,3.0,5.0,54,0.00,,CLR,0.00,VWS V14.01,2013-01-24 09:17:00,
2013-01-24 03:27:00,-7.2,-19.4,30.68,NNE,12,0.0,5.0,54,0.00,,CLR,0.00,VWS V14.01,2013-01-24 09:27:00,
2013-01-24 03:37:00,-7.2,-19.4,30.69,NE,51,1.0,4.0,54,0.00,,CLR,0.00,VWS V14.01,2013-01-24 09:37:00,
2013-01-24 03:42:00,-7.2,-19.4,30.69,NE,51,1.0,2.0,54,0.00,,CLR,0.00,VWS V14.01,2013-01-24 09:42:00,
2013-01-24 03:47:00,-7.2,-19.4,30.69,NE,51,1.0,2.0,54,0.00,,CLR,0.00,VWS V14.01,2013-01-24 09:47:00,
2013-01-24 03:52:00,-7.2,-19.4,30.69,NE,51,1.0,2.0,54,0.00,,CLR,0.00,VWS V14.01,2013-01-24 09:52:00,
2013-01-24 03:57:00,-7.2,-19.4,30.69,NE,51,0.0,2.0,54,0.00,,CLR,0.00,VWS V14.01,2013-01-24 09:57:00,
2013-01-24 04:02:00,-7.2,-19.4,30.70,NNE,15,4.0,4.0,54,0.00,,CLR,0.00,VWS V14.01,2013-01-24 10:02:00,
2013-01-24 04:07:00,-7.2,-19.4,30.70,NNE,13,0.0,4.0,54,0.00,,CLR,0.00,VWS V14.01,2013-01-24 10:07:00,
2013-01-24 04:17:00,-7.2,-19.4,30.70,NNE,30,0.0,4.0,54,0.00,,CLR,0.00,VWS V14.01,2013-01-24 10:17:00,
2013-01-24 04:27:00,-7.5,-19.4,30.70,ENE,67,0.0,4.0,55,0.00,,CLR,0.00,VWS V14.01,2013-01-24 10:27:00,
2013-01-24 04:32:00,-7.2,-19.1,30.68,ENE,67,0.0,3.0,55,0.00,,CLR,0.00,VWS V14.01,2013-01-24 10:32:00,
2013-01-24 04:37:00,-7.2,-19.1,30.68,ENE,67,0.0,1.0,55,0.00,,CLR,0.00,VWS V14.01,2013-01-24 10:37:00,
2013-01-24 04:47:00,-7.2,-19.1,30.68,ENE,67,0.0,3.0,55,0.00,,CLR,0.00,VWS V14.01,2013-01-24 10:47:00,
2013-01-24 04:52:00,-7.2,-19.1,30.68,ENE,65,4.0,5.0,55,0.00,,CLR,0.00,VWS V14.01,2013-01-24 10:52:00,
2013-01-24 04:57:00,-7.5,-19.4,30.68,ENE,61,1.0,6.0,55,0.00,,CLR,0.00,VWS V14.01,2013-01-24 10:57:00,
2013-01-24 05:02:00,-7.5,-19.4,30.67,ENE,62,4.0,4.0,55,0.00,,CLR,0.00,VWS V14.01,2013-01-24 11:02:00,
2013-01-24 05:07:00,-7.5,-19.4,30.67,ENE,65,1.0,4.0,55,0.00,,CLR,0.00,VWS V14.01,2013-01-24 11:07:00,
2013-01-24 05:12:00,-7.5,-19.4,30.67,ENE,66,4.0,6.0,55,0.00,,CLR,0.00,VWS V14.01,2013-01-24 11:12:00,
2013-01-24 05:17:00,-7.5,-19.4,30.67,ENE,75,3.0,6.0,55,0.00,,CLR,0.00,VWS V14.01,2013-01-24 11:17:00,
2013-01-24 05:22:00,-7.2,-19.1,30.67,ENE,71,2.0,5.0,55,0.00,,CLR,0.00,VWS V14.01,2013-01-24 11:22:00,
2013-01-24 05:27:00,-7.2,-19.1,30.67,East,88,0.0,3.0,55,0.00,,CLR,0.00,VWS V14.01,2013-01-24 11:27:00,
2013-01-24 05:32:00,-7.2,-19.1,30.67,ENE,75,1.0,4.0,55,0.00,,CLR,0.00,VWS V14.01,2013-01-24 11:32:00,
2013-01-24 05:37:00,-7.2,-19.1,30.67,East,81,1.0,4.0,55,0.00,,CLR,0.00,VWS V14.01,2013-01-24 11:37:00,
2013-01-24 05:42:00,-7.2,-19.1,30.67,East,84,0.0,5.0,55,0.00,,CLR,0.00,VWS V14.01,2013-01-24 11:42:00,
2013-01-24 05:47:00,-7.0,-18.9,30.67,ENE,63,0.0,4.0,55,0.00,,CLR,0.00,VWS V14.01,2013-01-24 11:47:00,
2013-01-24 05:57:00,-7.0,-18.9,30.67,ENE,67,1.0,5.0,55,0.00,,CLR,0.00,VWS V14.01,2013-01-24 11:57:00,
2013-01-24 06:02:00,-7.0,-18.9,30.67,ENE,76,0.0,5.0,55,0.00,,CLR,0.00,VWS V14.01,2013-01-24 12:02:00,
2013-01-24 06:07:00,-7.0,-18.5,30.67,ENE,57,4.0,5.0,56,0.00,,CLR,0.00,VWS V14.01,2013-01-24 12:07:00,
2013-01-24 06:17:00,-6.8,-18.4,30.68,ENE,62,1.0,4.0,56,0.00,,CLR,0.00,VWS V14.01,2013-01-24 12:17:00,
2013-01-24 06:22:00,-6.8,-18.4,30.68,ENE,63,0.0,3.0,56,0.00,,CLR,0.00,VWS V14.01,2013-01-24 12:22:00,
2013-01-24 06:32:00,-6.5,-18.1,30.69,East,91,1.0,1.0,56,0.00,,CLR,0.00,VWS V14.01,2013-01-24 12:32:00,
2013-01-24 06:37:00,-6.5,-18.1,30.69,East,91,0.0,2.0,56,0.00,,CLR,0.00,VWS V14.01,2013-01-24 12:37:00,
2013-01-24 06:47:00,-6.8,-18.7,30.72,East,91,0.0,0.0,55,0.00,,CLR,0.00,VWS V14.01,2013-01-24 12:47:00,
2013-01-24 06:57:00,-6.5,-18.1,30.72,East,91,0.0,0.0,56,0.00,,CLR,0.00,VWS V14.01,2013-01-24 12:57:00,
2013-01-24 07:02:00,-6.3,-17.9,30.71,East,91,0.0,0.0,56,0.00,,CLR,0.00,VWS V14.01,2013-01-24 13:02:00,
2013-01-24 07:07:00,-6.3,-17.9,30.71,East,91,0.0,0.0,56,0.00,,CLR,0.00,VWS V14.01,2013-01-24 13:07:00,
2013-01-24 07:12:00,-6.3,-17.9,30.71,East,91,0.0,0.0,56,0.00,,CLR,0.00,VWS V14.01,2013-01-24 13:12:00,
2013-01-24 07:22:00,-6.1,-17.7,30.71,East,91,0.0,0.0,56,0.00,,CLR,0.00,VWS V14.01,2013-01-24 13:22:00,
2013-01-24 07:27:00,-6.1,-17.7,30.71,East,91,0.0,0.0,56,0.00,,CLR,0.00,VWS V14.01,2013-01-24 13:27:00,
2013-01-24 07:37:00,-6.1,-17.7,30.71,East,91,0.0,0.0,56,0.00,,CLR,0.00,VWS V14.01,2013-01-24 13:37:00,
2013-01-24 07:42:00,-6.1,-17.7,30.71,East,91,2.0,2.0,56,0.00,,CLR,0.00,VWS V14.01,2013-01-24 13:42:00,
2013-01-24 07:47:00,-5.9,-17.5,30.70,East,90,0.0,2.0,56,0.00,,CLR,0.00,VWS V14.01,2013-01-24 13:47:00,
2013-01-24 07:52:00,-6.1,-17.7,30.70,East,90,0.0,3.0,56,0.00,,CLR,0.00,VWS V14.01,2013-01-24 13:52:00,
2013-01-24 07:57:00,-6.1,-17.7,30.70,ENE,78,0.0,4.0,56,0.00,,CLR,0.00,VWS V14.01,2013-01-24 13:57:00,
2013-01-24 08:07:00,-5.9,-17.5,30.69,East,90,0.0,1.0,56,0.00,,FEW120,0.00,VWS V14.01,2013-01-24 14:07:00,
2013-01-24 08:12:00,-5.9,-17.2,30.69,East,90,0.0,1.0,57,0.00,,FEW120,0.00,VWS V14.01,2013-01-24 14:12:00,
2013-01-24 08:17:00,-5.6,-16.9,30.69,East,90,0.0,1.0,57,0.00,,FEW120,0.00,VWS V14.01,2013-01-24 14:17:00,
2013-01-24 08:22:00,-5.4,-16.4,30.69,ESE,104,0.0,5.0,58,0.00,,FEW120,0.00,VWS V14.01,2013-01-24 14:22:00,
2013-01-24 08:27:00,-5.4,-16.4,30.69,East,99,0.0,2.0,58,0.00,,FEW120,0.00,VWS V14.01,2013-01-24 14:27:00,
2013-01-24 08:37:00,-5.2,-16.5,30.68,East,98,0.0,2.0,57,0.00,,FEW120,0.00,VWS V14.01,2013-01-24 14:37:00,
2013-01-24 08:47:00,-5.0,-16.0,30.67,ESE,108,0.0,2.0,58,0.00,,FEW120,0.00,VWS V14.01,2013-01-24 14:47:00,
2013-01-24 08:52:00,-4.8,-15.8,30.67,East,89,5.0,6.0,58,0.00,,FEW120,0.00,VWS V14.01,2013-01-24 14:52:00,
2013-01-24 08:57:00,-4.8,-16.1,30.67,East,97,0.0,5.0,57,0.00,,FEW120,0.00,VWS V14.01,2013-01-24 14:57:00,
2013-01-24 09:07:00,-4.3,-15.3,30.66,East,101,1.0,4.0,58,0.00,,CLR,0.00,VWS V14.01,2013-01-24 15:07:00,
2013-01-24 09:12:00,-4.1,-15.1,30.66,NE,47,2.0,4.0,58,0.00,,CLR,0.00,VWS V14.01,2013-01-24 15:12:00,
2013-01-24 09:22:00,-3.9,-14.9,30.65,ESE,110,1.0,3.0,58,0.00,,CLR,0.00,VWS V14.01,2013-01-24 15:22:00,
2013-01-24 09:27:00,-3.9,-15.3,30.65,ESE,121,0.0,5.0,57,0.00,,CLR,0.00,VWS V14.01,2013-01-24 15:27:00,
2013-01-24 09:32:00,-3.7,-15.1,30.65,East,94,4.0,5.0,57,0.00,,CLR,0.00,VWS V14.01,2013-01-24 15:32:00,
2013-01-24 09:37:00,-3.7,-15.1,30.65,East,90,0.0,4.0,57,0.00,,CLR,0.00,VWS V14.01,2013-01-24 15:37:00,
2013-01-24 09:47:00,-3.3,-14.7,30.65,SE,132,0.0,4.0,57,0.00,,CLR,0.00,VWS V14.01,2013-01-24 15:47:00,
2013-01-24 09:52:00,-3.1,-14.5,30.65,SE,144,0.0,0.0,57,0.00,,CLR,0.00,VWS V14.01,2013-01-24 15:52:00,
2013-01-24 09:57:00,-2.8,-14.2,30.65,SSE,150,0.0,3.0,57,0.00,,CLR,0.00,VWS V14.01,2013-01-24 15:57:00,
2013-01-24 10:02:00,-2.4,-13.9,30.66,SSE,148,0.0,2.0,57,0.00,,FEW120,0.00,VWS V14.01,2013-01-24 16:02:00,
2013-01-24 10:07:00,-2.2,-13.7,30.66,SSE,155,0.0,1.0,57,0.00,,FEW120,0.00,VWS V14.01,2013-01-24 16:07:00,
2013-01-24 10:12:00,-2.0,-13.8,30.66,South,172,0.0,3.0,56,0.00,,FEW120,0.00,VWS V14.01,2013-01-24 16:12:00,
2013-01-24 10:17:00,-1.8,-13.7,30.66,SSE,153,0.0,5.0,56,0.00,,FEW120,0.00,VWS V14.01,2013-01-24 16:17:00,
2013-01-24 10:22:00,-1.6,-13.5,30.66,South,171,0.0,1.0,56,0.00,,FEW120,0.00,VWS V14.01,2013-01-24 16:22:00,
2013-01-24 10:32:00,-1.4,-13.3,30.65,South,173,0.0,4.0,56,0.00,,FEW120,0.00,VWS V14.01,2013-01-24 16:32:00,
2013-01-24 10:37:00,-1.2,-13.1,30.65,SSE,163,0.0,7.0,56,0.00,,FEW120,0.00,VWS V14.01,2013-01-24 16:37:00,
2013-01-24 10:42:00,-1.0,-12.9,30.65,SSE,163,0.0,5.0,56,0.00,,FEW120,0.00,VWS V14.01,2013-01-24 16:42:00,
2013-01-24 10:47:00,-0.8,-12.7,30.65,SE,132,1.0,1.0,56,0.00,,FEW120,0.00,VWS V14.01,2013-01-24 16:47:00,
2013-01-24 10:57:00,-0.4,-12.3,30.65,ESE,117,0.0,1.0,56,0.00,,FEW120,0.00,VWS V14.01,2013-01-24 16:57:00,
2013-01-24 11:02:00,-0.2,-12.0,30.65,SE,136,0.0,0.0,56,0.00,,FEW110,0.00,VWS V14.01,2013-01-24 17:02:00,
2013-01-24 11:12:00,0.1,-12.2,30.65,SE,143,0.0,5.0,55,0.00,,FEW110,0.00,VWS V14.01,2013-01-24 17:12:00,
2013-01-24 11:17:00,0.3,-12.0,30.64,SSE,161,0.0,5.0,55,0.00,,FEW110,0.00,VWS V14.01,2013-01-24 17:17:00,
2013-01-24 11:22:00,0.5,-11.5,30.64,South,176,0.0,5.0,56,0.00,,FEW110,0.00,VWS V14.01,2013-01-24 17:22:00,
2013-01-24 11:32:00,0.9,-11.5,30.63,SSE,167,0.0,1.0,55,0.00,,FEW110,0.00,VWS V14.01,2013-01-24 17:32:00,
2013-01-24 11:42:00,1.3,-11.5,30.63,SSE,148,0.0,6.0,54,0.00,,FEW110,0.00,VWS V14.01,2013-01-24 17:42:00,
2013-01-24 11:52:00,1.7,-11.1,30.62,SE,135,0.0,7.0,54,0.00,,FEW110,0.00,VWS V14.01,2013-01-24 17:52:00,
2013-01-24 11:57:00,1.8,-11.0,30.62,South,178,0.0,7.0,54,0.00,,FEW110,0.00,VWS V14.01,2013-01-24 17:57:00,
2013-01-24 12:02:00,1.8,-11.4,30.60,SSE,149,0.0,5.0,53,0.00,,CLR,0.00,VWS V14.01,2013-01-24 18:02:00,
2013-01-24 12:12:00,2.2,-11.0,30.60,SE,146,0.0,1.0,53,0.00,,CLR,0.00,VWS V14.01,2013-01-24 18:12:00,
2013-01-24 12:17:00,2.4,-10.4,30.60,SE,125,0.0,1.0,54,0.00,,CLR,0.00,VWS V14.01,2013-01-24 18:17:00,
2013-01-24 12:27:00,2.8,-10.4,30.60,SSE,154,5.0,5.0,53,0.00,,CLR,0.00,VWS V14.01,2013-01-24 18:27:00,
2013-01-24 12:32:00,2.8,-10.4,30.59,SE,130,0.0,9.0,53,0.00,,CLR,0.00,VWS V14.01,2013-01-24 18:32:00,
2013-01-24 12:37:00,2.8,-10.4,30.59,South,171,1.0,7.0,53,0.00,,CLR,0.00,VWS V14.01,2013-01-24 18:37:00,
2013-01-24 12:47:00,3.0,-10.2,30.57,SE,145,0.0,4.0,53,0.00,,CLR,0.00,VWS V14.01,2013-01-24 18:47:00,
2013-01-24 12:52:00,3.2,-10.1,30.57,SSE,164,3.0,6.0,53,0.00,,CLR,0.00,VWS V14.01,2013-01-24 18:52:00,
2013-01-24 13:02:00,3.2,-10.1,30.56,SSE,154,5.0,10.0,53,0.00,,FEW090,0.00,VWS V14.01,2013-01-24 19:02:00,
2013-01-24 13:12:00,3.5,-9.8,30.56,SE,138,0.0,6.0,53,0.00,,FEW090,0.00,VWS V14.01,2013-01-24 19:12:00,
2013-01-24 13:22:00,3.7,-9.6,30.55,SSE,150,0.0,5.0,53,0.00,,FEW090,0.00,VWS V14.01,2013-01-24 19:22:00,
2013-01-24 13:27:00,3.9,-9.4,30.55,ESE,115,0.0,3.0,53,0.00,,FEW090,0.00,VWS V14.01,2013-01-24 19:27:00,
2013-01-24 13:32:00,4.1,-9.2,30.55,SSE,164,0.0,6.0,53,0.00,,FEW090,0.00,VWS V14.01,2013-01-24 19:32:00,
2013-01-24 13:37:00,4.3,-9.4,30.55,SE,140,5.0,5.0,52,0.00,,FEW090,0.00,VWS V14.01,2013-01-24 19:37:00,
2013-01-24 13:47:00,4.3,-9.4,30.54,South,174,2.0,4.0,52,0.00,,FEW090,0.00,VWS V14.01,2013-01-24 19:47:00,
2013-01-24 13:52:00,4.3,-9.4,30.54,South,172,0.0,3.0,52,0.00,,FEW090,0.00,VWS V14.01,2013-01-24 19:52:00,
2013-01-24 13:57:00,4.5,-9.2,30.54,SSE,165,1.0,1.0,52,0.00,,FEW090,0.00,VWS V14.01,2013-01-24 19:57:00,
2013-01-24 14:02:00,4.5,-9.2,30.54,SE,144,0.0,5.0,52,0.00,,OVC090,0.00,VWS V14.01,2013-01-24 20:02:00,
2013-01-24 14:07:00,4.7,-9.1,30.54,SSE,163,0.0,2.0,52,0.00,,OVC090,0.00,VWS V14.01,2013-01-24 20:07:00,
2013-01-24 14:17:00,5.0,-8.8,30.52,SSE,159,2.0,5.0,52,0.00,,OVC090,0.00,VWS V14.01,2013-01-24 20:17:00,
2013-01-24 14:22:00,5.0,-8.8,30.52,South,176,4.0,5.0,52,0.00,,OVC090,0.00,VWS V14.01,2013-01-24 20:22:00,
2013-01-24 14:27:00,5.0,-8.4,30.52,SSE,156,1.0,5.0,53,0.00,,OVC090,0.00,VWS V14.01,2013-01-24 20:27:00,
2013-01-24 14:32:00,5.2,-8.6,30.50,ESE,123,1.0,6.0,52,0.00,,OVC090,0.00,VWS V14.01,2013-01-24 20:32:00,
2013-01-24 14:37:00,5.2,-8.6,30.50,SSE,158,0.0,7.0,52,0.00,,OVC090,0.00,VWS V14.01,2013-01-24 20:37:00,
2013-01-24 14:42:00,5.4,-8.4,30.50,South,178,0.0,6.0,52,0.00,,OVC090,0.00,VWS V14.01,2013-01-24 20:42:00,
2013-01-24 14:47:00,5.6,-8.2,30.47,South,173,0.0,6.0,52,0.00,,OVC090,0.00,VWS V14.01,2013-01-24 20:47:00,
2013-01-24 14:52:00,5.6,-8.2,30.47,SE,144,2.0,3.0,52,0.00,,OVC090,0.00,VWS V14.01,2013-01-24 20:52:00,
2013-01-24 14:57:00,5.8,-8.0,30.47,SE,126,0.0,7.0,52,0.00,,OVC090,0.00,VWS V14.01,2013-01-24 20:57:00,
2013-01-24 15:02:00,5.8,-8.0,30.47,SSE,159,3.0,9.0,52,0.00,,OVC095,0.00,VWS V14.01,2013-01-24 21:02:00,
2013-01-24 15:07:00,5.8,-8.0,30.47,ESE,109,4.0,8.0,52,0.00,,OVC095,0.00,VWS V14.01,2013-01-24 21:07:00,
2013-01-24 15:12:00,6.0,-7.8,30.47,SSE,156,3.0,5.0,52,0.00,,OVC095,0.00,VWS V14.01,2013-01-24 21:12:00,
2013-01-24 15:22:00,6.1,-7.3,30.46,SE,138,1.0,5.0,53,0.00,,OVC095,0.00,VWS V14.01,2013-01-24 21:22:00,
2013-01-24 15:27:00,6.1,-7.7,30.46,ESE,112,0.0,8.0,52,0.00,,OVC095,0.00,VWS V14.01,2013-01-24 21:27:00,
2013-01-24 15:32:00,6.3,-7.6,30.46,SSE,147,2.0,7.0,52,0.00,,OVC095,0.00,VWS V14.01,2013-01-24 21:32:00,
2013-01-24 15:37:00,6.3,-7.2,30.46,SSE,162,4.0,6.0,53,0.00,,OVC095,0.00,VWS V14.01,2013-01-24 21:37:00,
2013-01-24 15:42:00,6.5,-7.0,30.46,ESE,117,0.0,5.0,53,0.00,,OVC095,0.00,VWS V14.01,2013-01-24 21:42:00,
2013-01-24 15:47:00,6.5,-7.0,30.45,SE,134,0.0,3.0,53,0.00,,OVC095,0.00,VWS V14.01,2013-01-24 21:47:00,
2013-01-24 15:52:00,6.7,-6.8,30.45,ESE,113,0.0,3.0,53,0.00,,OVC095,0.00,VWS V14.01,2013-01-24 21:52:00,
2013-01-24 15:57:00,6.7,-6.8,30.45,ESE,121,0.0,3.0,53,0.00,,OVC095,0.00,VWS V14.01,2013-01-24 21:57:00,
2013-01-24 16:02:00,6.9,-6.2,30.43,SE,131,0.0,2.0,54,0.00,,OVC100,0.00,VWS V14.01,2013-01-24 22:02:00,
2013-01-24 16:07:00,6.9,-6.2,30.43,ESE,120,0.0,5.0,54,0.00,,OVC100,0.00,VWS V14.01,2013-01-24 22:07:00,
2013-01-24 16:17:00,6.9,-5.8,30.42,East,84,1.0,3.0,55,0.00,,OVC100,0.00,VWS V14.01,2013-01-24 22:17:00,
2013-01-24 16:22:00,6.9,-6.2,30.42,ESE,113,1.0,4.0,54,0.00,,OVC100,0.00,VWS V14.01,2013-01-24 22:22:00,
2013-01-24 16:27:00,6.9,-6.2,30.42,ESE,109,1.0,2.0,54,0.00,,OVC100,0.00,VWS V14.01,2013-01-24 22:27:00,
2013-01-24 16:32:00,6.9,-5.8,30.42,ESE,119,1.0,2.0,55,0.00,,OVC100,0.00,VWS V14.01,2013-01-24 22:32:00,
2013-01-24 16:37:00,7.0,-5.8,30.42,ESE,104,0.0,2.0,55,0.00,,OVC100,0.00,VWS V14.01,2013-01-24 22:37:00,
2013-01-24 16:42:00,7.0,-6.1,30.42,ESE,103,1.0,5.0,54,0.00,,OVC100,0.00,VWS V14.01,2013-01-24 22:42:00,
2013-01-24 16:52:00,7.0,-5.8,30.40,ENE,66,5.0,7.0,55,0.00,,OVC100,0.00,VWS V14.01,2013-01-24 22:52:00,
2013-01-24 16:57:00,7.0,-6.1,30.40,East,99,2.0,5.0,54,0.00,,OVC100,0.00,VWS V14.01,2013-01-24 22:57:00,
2013-01-24 17:02:00,7.2,-5.6,30.39,SE,142,2.0,4.0,55,0.00,,OVC100,0.00,VWS V14.01,2013-01-24 23:02:00,
2013-01-24 17:07:00,7.2,-5.6,30.39,SE,141,0.0,8.0,55,0.00,,OVC100,0.00,VWS V14.01,2013-01-24 23:07:00,
2013-01-24 17:12:00,7.2,-5.9,30.39,SE,132,0.0,5.0,54,0.00,,OVC100,0.00,VWS V14.01,2013-01-24 23:12:00,
2013-01-24 17:17:00,7.2,-5.6,30.39,SSE,158,0.0,4.0,55,0.00,,OVC100,0.00,VWS V14.01,2013-01-24 23:17:00,
2013-01-24 17:22:00,7.4,-5.4,30.39,SSE,153,0.0,3.0,55,0.00,,OVC100,0.00,VWS V14.01,2013-01-24 23:22:00,
2013-01-24 17:27:00,7.4,-5.4,30.39,ESE,121,1.0,6.0,55,0.00,,OVC100,0.00,VWS V14.01,2013-01-24 23:27:00,
2013-01-24 17:32:00,7.6,-5.2,30.38,ESE,114,0.0,4.0,55,0.00,,OVC100,0.00,VWS V14.01,2013-01-24 23:32:00,
2013-01-24 17:37:00,7.6,-5.2,30.38,ESE,108,2.0,4.0,55,0.00,,OVC100,0.00,VWS V14.01,2013-01-24 23:37:00,
2013-01-24 17:42:00,7.7,-5.5,30.38,ESE,102,3.0,4.0,54,0.00,,OVC100,0.00,VWS V14.01,2013-01-24 23:42:00,
2013-01-24 17:47:00,7.7,-5.5,30.37,SSE,157,1.0,7.0,54,0.00,,OVC100,0.00,VWS V14.01,2013-01-24 23:47:00,
2013-01-24 17:52:00,7.7,-5.5,30.37,SE,142,4.0,9.0,54,0.00,,OVC100,0.00,VWS V14.01,2013-01-24 23:52:00,
2013-01-24 17:57:00,7.7,-5.5,30.37,SE,138,0.0,12.0,54,0.00,,OVC100,0.00,VWS V14.01,2013-01-24 23:57:00,
2013-01-24 18:07:00,7.9,-5.3,30.36,ESE,106,2.0,6.0,54,0.00,,CLR,0.00,VWS V14.01,2013-01-25 00:07:00,
2013-01-24 18:12:00,7.9,-5.3,30.36,South,173,1.0,3.0,54,0.00,,CLR,0.00,VWS V14.01,2013-01-25 00:12:00,
2013-01-24 18:17:00,7.9,-4.9,30.34,SE,142,1.0,4.0,55,0.00,,CLR,0.00,VWS V14.01,2013-01-25 00:17:00,
2013-01-24 18:22:00,7.9,-5.3,30.34,SSE,157,6.0,12.0,54,0.00,,CLR,0.00,VWS V14.01,2013-01-25 00:22:00,
2013-01-24 18:27:00,7.9,-5.3,30.34,ESE,120,1.0,9.0,54,0.00,,CLR,0.00,VWS V14.01,2013-01-25 00:27:00,
2013-01-24 18:32:00,7.9,-4.9,30.33,SSE,150,1.0,4.0,55,0.00,,CLR,0.00,VWS V14.01,2013-01-25 00:32:00,
2013-01-24 18:37:00,8.1,-4.7,30.33,SSE,167,0.0,5.0,55,0.00,,CLR,0.00,VWS V14.01,2013-01-25 00:37:00,
2013-01-24 18:42:00,8.1,-4.7,30.33,SE,130,2.0,5.0,55,0.00,,CLR,0.00,VWS V14.01,2013-01-25 00:42:00,
2013-01-24 18:47:00,8.1,-4.7,30.34,SE,146,2.0,4.0,55,0.00,,CLR,0.00,VWS V14.01,2013-01-25 00:47:00,
2013-01-24 18:52:00,8.3,-4.5,30.34,South,170,0.0,5.0,55,0.00,,CLR,0.00,VWS V14.01,2013-01-25 00:52:00,
2013-01-24 19:02:00,8.4,-4.4,30.31,SSE,159,1.0,8.0,55,0.00,,CLR,0.00,VWS V14.01,2013-01-25 01:02:00,
2013-01-24 19:07:00,8.4,-4.1,30.31,SSE,158,2.0,7.0,56,0.00,,CLR,0.00,VWS V14.01,2013-01-25 01:07:00,
2013-01-24 19:12:00,8.6,-4.2,30.31,SSE,150,5.0,6.0,55,0.00,,CLR,0.00,VWS V14.01,2013-01-25 01:12:00,
2013-01-24 19:17:00,8.6,-4.2,30.31,SE,135,2.0,7.0,55,0.00,,CLR,0.00,VWS V14.01,2013-01-25 01:17:00,
2013-01-24 19:22:00,8.8,-4.4,30.31,SSE,147,0.0,10.0,54,0.00,,CLR,0.00,VWS V14.01,2013-01-25 01:22:00,
2013-01-24 19:27:00,8.8,-4.4,30.31,ESE,108,1.0,5.0,54,0.00,,CLR,0.00,VWS V14.01,2013-01-25 01:27:00,
2013-01-24 19:32:00,9.0,-4.2,30.29,SSE,165,3.0,9.0,54,0.00,,CLR,0.00,VWS V14.01,2013-01-25 01:32:00,
2013-01-24 19:37:00,9.0,-4.2,30.29,SE,126,3.0,11.0,54,0.00,,CLR,0.00,VWS V14.01,2013-01-25 01:37:00,
2013-01-24 19:42:00,9.0,-4.2,30.29,SSE,162,1.0,14.0,54,0.00,,CLR,0.00,VWS V14.01,2013-01-25 01:42:00,
2013-01-24 19:47:00,9.0,-4.2,30.28,ESE,114,1.0,12.0,54,0.00,,CLR,0.00,VWS V14.01,2013-01-25 01:47:00,
2013-01-24 19:52:00,9.0,-4.2,30.28,SSE,166,2.0,11.0,54,0.00,,CLR,0.00,VWS V14.01,2013-01-25 01:52:00,
2013-01-24 19:57:00,8.8,-4.4,30.28,SSE,156,12.0,17.0,54,0.00,,CLR,0.00,VWS V14.01,2013-01-25 01:57:00,
2013-01-24 20:02:00,8.8,-4.4,30.26,South,177,0.0,12.0,54,0.00,,OVC110,0.00,VWS V14.01,2013-01-25 02:02:00,
2013-01-24 20:07:00,8.8,-4.1,30.26,SE,145,1.0,7.0,55,0.00,,OVC110,0.00,VWS V14.01,2013-01-25 02:07:00,
2013-01-24 20:17:00,9.0,-3.9,30.26,SE,124,1.0,11.0,55,0.00,,OVC110,0.00,VWS V14.01,2013-01-25 02:17:00,
2013-01-24 20:22:00,9.0,-3.9,30.26,SSE,156,0.0,4.0,55,0.00,,OVC110,0.00,VWS V14.01,2013-01-25 02:22:00,
2013-01-24 20:27:00,9.0,-3.9,30.26,SE,126,1.0,8.0,55,0.00,,OVC110,0.00,VWS V14.01,2013-01-25 02:27:00,
2013-01-24 20:37:00,9.2,-3.7,30.27,SE,144,3.0,6.0,55,0.00,,OVC110,0.00,VWS V14.01,2013-01-25 02:37:00,
2013-01-24 20:42:00,9.2,-3.7,30.27,South,171,2.0,8.0,55,0.00,,OVC110,0.00,VWS V14.01,2013-01-25 02:42:00,
2013-01-24 20:47:00,9.3,-3.6,30.24,South,172,2.0,9.0,55,0.00,,OVC110,0.00,VWS V14.01,2013-01-25 02:47:00,
2013-01-24 20:52:00,9.3,-3.2,30.24,SSE,156,1.0,4.0,56,0.00,,OVC110,0.00,VWS V14.01,2013-01-25 02:52:00,
2013-01-24 21:02:00,9.3,-3.2,30.24,SSE,160,0.0,5.0,56,0.00,,OVC080,0.00,VWS V14.01,2013-01-25 03:02:00,
2013-01-24 21:07:00,9.5,-3.0,30.24,SSE,154,2.0,10.0,56,0.00,,OVC080,0.00,VWS V14.01,2013-01-25 03:07:00,
2013-01-24 21:17:00,9.5,-3.0,30.22,SSE,151,3.0,13.0,56,0.00,,OVC080,0.00,VWS V14.01,2013-01-25 03:17:00,
2013-01-24 21:22:00,9.7,-2.8,30.22,SSE,148,1.0,10.0,56,0.00,,OVC080,0.00,VWS V14.01,2013-01-25 03:22:00,
2013-01-24 21:27:00,9.7,-2.8,30.22,SE,140,2.0,9.0,56,0.00,,OVC080,0.00,VWS V14.01,2013-01-25 03:27:00,
2013-01-24 21:32:00,9.7,-2.8,30.22,SSE,147,2.0,7.0,56,0.00,,OVC080,0.00,VWS V14.01,2013-01-25 03:32:00,
2013-01-24 21:37:00,9.9,-2.3,30.22,SE,137,0.0,7.0,57,0.00,,OVC080,0.00,VWS V14.01,2013-01-25 03:37:00,
2013-01-24 21:42:00,9.9,-2.3,30.22,South,189,1.0,9.0,57,0.00,,OVC080,0.00,VWS V14.01,2013-01-25 03:42:00,
2013-01-24 21:47:00,10.0,-2.2,30.23,SSE,150,3.0,7.0,57,0.00,,OVC080,0.00,VWS V14.01,2013-01-25 03:47:00,
2013-01-24 21:52:00,10.0,-2.2,30.23,SSE,160,3.0,4.0,57,0.00,,OVC080,0.00,VWS V14.01,2013-01-25 03:52:00,
2013-01-24 21:57:00,10.2,-2.0,30.23,SSE,164,0.0,3.0,57,0.00,,OVC080,0.00,VWS V14.01,2013-01-25 03:57:00,
2013-01-24 22:02:00,10.2,-2.0,30.25,SSE,148,0.0,6.0,57,0.00,,OVC060,0.00,VWS V14.01,2013-01-25 04:02:00,
2013-01-24 22:07:00,10.2,-2.4,30.25,South,174,2.0,4.0,56,0.00,,OVC060,0.00,VWS V14.01,2013-01-25 04:07:00,
2013-01-24 22:12:00,10.4,-1.8,30.25,SSE,155,0.0,5.0,57,0.00,,OVC060,0.00,VWS V14.01,2013-01-25 04:12:00,
2013-01-24 22:22:00,10.5,-1.7,30.24,SSE,165,0.0,2.0,57,0.00,,OVC060,0.00,VWS V14.01,2013-01-25 04:22:00,
2013-01-24 22:27:00,10.5,-1.7,30.24,SSE,165,0.0,2.0,57,0.00,,OVC060,0.00,VWS V14.01,2013-01-25 04:27:00,
2013-01-24 22:37:00,10.7,-1.5,30.24,SSW,192,0.0,2.0,57,0.00,,OVC060,0.00,VWS V14.01,2013-01-25 04:37:00,
2013-01-24 22:42:00,10.9,-1.3,30.24,South,169,1.0,3.0,57,0.00,,OVC060,0.00,VWS V14.01,2013-01-25 04:42:00,
2013-01-24 22:47:00,10.9,-1.3,30.22,SSE,148,0.0,2.0,57,0.00,,OVC060,0.00,VWS V14.01,2013-01-25 04:47:00,
2013-01-24 22:52:00,11.1,-1.1,30.22,SSE,167,0.0,3.0,57,0.00,,OVC060,0.00,VWS V14.01,2013-01-25 04:52:00,
2013-01-24 22:57:00,11.1,-1.5,30.22,SSE,157,0.0,2.0,56,0.00,,OVC060,0.00,VWS V14.01,2013-01-25 04:57:00,
2013-01-24 23:07:00,11.2,-1.4,30.21,South,175,0.0,3.0,56,0.00,,OVC060,0.00,VWS V14.01,2013-01-25 05:07:00,
2013-01-24 23:12:00,11.4,-1.2,30.21,SSE,163,1.0,2.0,56,0.00,,OVC060,0.00,VWS V14.01,2013-01-25 05:12:00,
2013-01-24 23:17:00,11.6,-1.0,30.19,SSE,161,0.0,5.0,56,0.00,,OVC060,0.00,VWS V14.01,2013-01-25 05:17:00,
2013-01-24 23:22:00,11.7,-1.0,30.19,South,169,0.0,5.0,56,0.00,,OVC060,0.00,VWS V14.01,2013-01-25 05:22:00,
2013-01-24 23:27:00,12.1,-0.6,30.19,South,173,1.0,10.0,56,0.00,,OVC060,0.00,VWS V14.01,2013-01-25 05:27:00,
2013-01-24 23:32:00,12.3,-0.8,30.19,SSE,155,2.0,8.0,55,0.00,,OVC060,0.00,VWS V14.01,2013-01-25 05:32:00,
2013-01-24 23:37:00,12.6,-0.5,30.19,South,172,4.0,9.0,55,0.00,,OVC060,0.00,VWS V14.01,2013-01-25 05:37:00,
2013-01-24 23:42:00,12.6,-0.9,30.19,South,182,7.0,11.0,54,0.00,,OVC060,0.00,VWS V14.01,2013-01-25 05:42:00,
2013-01-24 23:52:00,12.8,-0.7,30.17,South,184,0.0,13.0,54,0.00,,OVC060,0.00,VWS V14.01,2013-01-25 05:52:00,